createdAt,value
2022-10-11T00:01:00.374Z,102172.25
2022-10-11T00:03:26.832Z,102175.13
2022-10-11T00:05:53.147Z,102172.69
2022-10-11T00:08:19.467Z,102179.88
2022-10-11T00:10:46.030Z,102180.06
2022-10-11T00:13:12.724Z,102178.16
2022-10-11T00:15:40.332Z,102175.41
2022-10-11T00:18:06.620Z,102181.66
2022-10-11T00:20:32.911Z,102188.00
2022-10-11T00:22:59.185Z,102186.63
2022-10-11T00:25:25.457Z,102194.94
2022-10-11T00:27:51.740Z,102192.72
2022-10-11T00:30:18.072Z,102195.66
2022-10-11T00:32:45.713Z,102198.53
2022-10-11T00:35:12.035Z,102194.81
2022-10-11T00:37:38.661Z,102196.72
2022-10-11T00:40:06.207Z,102197.88
2022-10-11T00:42:32.503Z,102201.66
2022-10-11T00:45:13.665Z,102199.13
2022-10-11T00:47:40.732Z,102207.38
2022-10-11T00:50:09.728Z,102209.53
2022-10-11T00:52:37.673Z,102210.34
2022-10-11T00:55:05.708Z,102212.44
2022-10-11T00:57:33.672Z,102208.38
2022-10-11T01:00:00.173Z,102213.63
2022-10-11T01:02:27.399Z,102213.81
2022-10-11T01:05:11.410Z,102219.09
2022-10-11T01:07:42.651Z,102215.34
2022-10-11T01:10:09.163Z,102221.47
2022-10-11T01:12:36.353Z,102217.03
2022-10-11T01:15:13.853Z,102225.91
2022-10-11T01:17:44.869Z,102218.84
2022-10-11T01:20:23.760Z,102221.75
2022-10-11T01:23:07.027Z,102222.50
2022-10-11T01:25:37.690Z,102222.06
2022-10-11T01:28:24.913Z,102228.00
2022-10-11T01:30:54.820Z,102226.75
2022-10-11T01:33:27.236Z,102216.88
2022-10-11T01:35:57.589Z,102222.06
2022-10-11T01:38:27.167Z,102225.91
2022-10-11T01:40:56.509Z,102223.66
2022-10-11T01:43:23.976Z,102229.41
2022-10-11T01:45:51.529Z,102227.06
2022-10-11T01:48:19.221Z,102216.59
2022-10-11T01:50:46.585Z,102217.94
2022-10-11T01:53:18.717Z,102228.56
2022-10-11T01:55:48.682Z,102227.63
2022-10-11T01:58:22.230Z,102218.94
2022-10-11T02:00:52.217Z,102230.44
2022-10-11T02:03:24.482Z,102231.94
2022-10-11T02:05:56.003Z,102241.56
2022-10-11T02:08:25.044Z,102232.69
2022-10-11T02:10:54.421Z,102232.06
2022-10-11T02:13:23.813Z,102235.72
2022-10-11T02:15:50.481Z,102232.06
2022-10-11T02:18:18.955Z,102233.75
2022-10-11T02:20:47.666Z,102241.00
2022-10-11T02:23:15.477Z,102237.69
2022-10-11T02:25:42.744Z,102242.19
2022-10-11T02:28:11.053Z,102246.06
2022-10-11T02:30:38.651Z,102242.59
2022-10-11T02:33:06.673Z,102246.84
2022-10-11T02:35:37.046Z,102249.47
2022-10-11T02:38:08.762Z,102249.91
2022-10-11T02:40:35.812Z,102251.69
2022-10-11T02:43:04.758Z,102258.97
2022-10-11T02:45:33.620Z,102258.88
2022-10-11T02:48:00.271Z,102261.41
2022-10-11T02:50:27.009Z,102263.47
2022-10-11T02:52:53.296Z,102256.00
2022-10-11T02:55:21.002Z,102259.22
2022-10-11T02:57:47.325Z,102256.50
2022-10-11T03:00:14.386Z,102256.59
2022-10-11T03:02:40.730Z,102260.22
2022-10-11T03:05:07.339Z,102265.50
2022-10-11T03:07:33.662Z,102266.34
2022-10-11T03:09:59.928Z,102262.13
2022-10-11T03:12:27.566Z,102263.06
2022-10-11T03:14:53.834Z,102259.50
2022-10-11T03:17:35.490Z,102256.72
2022-10-11T03:20:02.846Z,102256.00
2022-10-11T03:22:29.130Z,102250.53
2022-10-11T03:24:57.521Z,102251.47
2022-10-11T03:27:28.684Z,102254.94
2022-10-11T03:29:54.977Z,102256.72
2022-10-11T03:32:21.256Z,102262.81
2022-10-11T03:34:47.529Z,102259.66
2022-10-11T03:37:13.800Z,102268.44
2022-10-11T03:39:40.110Z,102272.75
2022-10-11T03:42:06.430Z,102272.84
2022-10-11T03:44:34.036Z,102282.03
2022-10-11T03:47:00.299Z,102275.09
2022-10-11T03:49:26.591Z,102283.34
2022-10-11T03:51:52.869Z,102287.28
2022-10-11T03:54:19.134Z,102292.56
2022-10-11T03:56:45.413Z,102289.84
2022-10-11T03:59:11.699Z,102291.16
2022-10-11T04:01:39.393Z,102289.63
2022-10-11T04:04:05.685Z,102294.06
2022-10-11T04:06:32.247Z,102286.91
2022-10-11T04:08:58.533Z,102301.97
2022-10-11T04:11:24.826Z,102296.78
2022-10-11T04:13:51.149Z,102301.13
2022-10-11T04:16:17.437Z,102303.91
2022-10-11T04:18:45.098Z,102302.53
2022-10-11T04:21:11.386Z,102315.97
2022-10-11T04:23:37.656Z,102304.44
2022-10-11T04:26:04.531Z,102301.59
2022-10-11T04:28:31.024Z,102314.59
2022-10-11T04:30:57.325Z,102310.34
2022-10-11T04:33:23.632Z,102304.44
2022-10-11T04:35:54.350Z,102313.25
2022-10-11T04:38:20.715Z,102311.41
2022-10-11T04:40:46.985Z,102314.97
2022-10-11T04:43:13.295Z,102316.81
2022-10-11T04:45:39.594Z,102317.75
2022-10-11T04:48:06.234Z,102314.34
2022-10-11T04:50:32.593Z,102321.94
2022-10-11T04:53:00.260Z,102319.09
2022-10-11T04:55:26.558Z,102316.56
2022-10-11T04:57:52.853Z,102315.91
2022-10-11T05:00:19.123Z,102315.13
2022-10-11T05:02:45.394Z,102314.63
2022-10-11T05:05:11.680Z,102317.50
2022-10-11T05:07:37.945Z,102317.66
2022-10-11T05:10:06.403Z,102330.91
2022-10-11T05:12:32.693Z,102324.13
2022-10-11T05:14:58.965Z,102329.88
2022-10-11T05:17:25.321Z,102335.66
2022-10-11T05:19:51.596Z,102326.66
2022-10-11T05:22:17.895Z,102332.59
2022-10-11T05:24:44.213Z,102336.84
2022-10-11T05:27:11.819Z,102335.84
2022-10-11T05:29:38.160Z,102344.69
2022-10-11T05:32:04.650Z,102335.94
2022-10-11T05:34:30.932Z,102344.69
2022-10-11T05:36:57.280Z,102348.94
2022-10-11T05:39:23.616Z,102352.50
2022-10-11T05:41:49.904Z,102352.66
2022-10-11T05:44:17.566Z,102351.88
2022-10-11T05:46:43.869Z,102348.81
2022-10-11T05:49:10.155Z,102361.84
2022-10-11T05:51:36.434Z,102363.56
2022-10-11T05:54:02.708Z,102366.81
2022-10-11T05:56:28.988Z,102356.19
2022-10-11T05:58:59.946Z,102370.38
2022-10-11T06:01:29.846Z,102369.75
2022-10-11T06:03:56.259Z,102379.75
2022-10-11T06:06:22.931Z,102381.53
2022-10-11T06:08:49.652Z,102378.66
2022-10-11T06:11:17.206Z,102374.09
2022-10-11T06:13:43.557Z,102376.72
2022-10-11T06:16:10.242Z,102379.03
2022-10-11T06:18:37.872Z,102377.69
2022-10-11T06:21:04.512Z,102382.53
2022-10-11T06:23:31.044Z,102389.19
2022-10-11T06:25:57.529Z,102380.03
2022-10-11T06:28:23.925Z,102388.53
2022-10-11T06:30:50.242Z,102388.38
2022-10-11T06:33:16.561Z,102385.56
2022-10-11T06:35:44.176Z,102389.91
2022-10-11T06:38:10.480Z,102396.38
2022-10-11T06:40:36.777Z,102396.97
2022-10-11T06:43:03.206Z,102392.28
2022-10-11T06:45:29.520Z,102399.34
2022-10-11T06:47:55.799Z,102400.38
2022-10-11T06:50:40.769Z,102400.44
2022-10-11T06:53:09.863Z,102405.41
2022-10-11T06:55:36.151Z,102406.06
2022-10-11T06:58:02.417Z,102413.72
2022-10-11T07:00:28.703Z,102417.81
2022-10-11T07:02:54.980Z,102414.81
2022-10-11T07:05:21.223Z,102424.00
2022-10-11T07:07:47.514Z,102420.00
2022-10-11T07:10:15.285Z,102428.44
2022-10-11T07:12:43.054Z,102429.81
2022-10-11T07:15:09.862Z,102425.97
2022-10-11T07:17:36.148Z,102430.97
2022-10-11T07:20:02.420Z,102434.97
2022-10-11T07:22:28.749Z,102437.94
2022-10-11T07:24:55.058Z,102439.09
2022-10-11T07:27:23.307Z,102444.78
2022-10-11T07:29:49.588Z,102446.97
2022-10-11T07:32:15.902Z,102447.47
2022-10-11T07:34:42.522Z,102450.66
2022-10-11T07:37:08.816Z,102448.53
2022-10-11T07:39:35.262Z,102453.34
2022-10-11T07:42:01.544Z,102452.03
2022-10-11T07:44:29.278Z,102445.38
2022-10-11T07:46:56.045Z,102454.53
2022-10-11T07:49:22.344Z,102452.25
2022-10-11T07:51:48.765Z,102452.00
2022-10-11T07:54:15.066Z,102457.81
2022-10-11T07:56:41.340Z,102449.44
2022-10-11T07:59:07.624Z,102453.41
2022-10-11T08:01:35.301Z,102446.78
2022-10-11T08:04:01.637Z,102448.00
2022-10-11T08:06:29.064Z,102452.81
2022-10-11T08:08:56.417Z,102454.88
2022-10-11T08:11:23.554Z,102455.13
2022-10-11T08:13:49.862Z,102457.09
2022-10-11T08:16:16.577Z,102458.00
2022-10-11T08:18:44.206Z,102455.50
2022-10-11T08:21:11.998Z,102457.34
2022-10-11T08:23:38.553Z,102461.75
2022-10-11T08:26:05.475Z,102468.06
2022-10-11T08:28:32.659Z,102467.97
2022-10-11T08:30:59.072Z,102466.94
2022-10-11T08:33:26.062Z,102459.63
2022-10-11T08:35:54.007Z,102449.16
2022-10-11T08:38:20.741Z,102463.34
2022-10-11T08:40:47.624Z,102463.44
2022-10-11T08:43:18.335Z,102465.69
2022-10-11T08:45:48.969Z,102460.31
2022-10-11T08:48:17.643Z,102468.78
2022-10-11T08:50:46.531Z,102469.25
2022-10-11T08:53:18.755Z,102465.28
2022-10-11T08:55:46.723Z,102462.22
2022-10-11T08:58:14.782Z,102473.66
2022-10-11T09:00:41.454Z,102473.31
2022-10-11T09:03:15.012Z,102478.44
2022-10-11T09:05:51.004Z,102482.38
2022-10-11T09:08:20.509Z,102474.06
2022-10-11T09:10:57.107Z,102472.75
2022-10-11T09:13:36.103Z,102475.16
2022-10-11T09:16:08.527Z,102475.16
2022-10-11T09:18:42.169Z,102473.22
2022-10-11T09:21:13.308Z,102468.41
2022-10-11T09:23:53.056Z,102473.44
2022-10-11T09:26:21.849Z,102477.94
2022-10-11T09:28:56.218Z,102475.63
2022-10-11T09:31:26.598Z,102478.84
2022-10-11T09:33:52.913Z,102482.47
2022-10-11T09:36:22.593Z,102479.28
2022-10-11T09:38:54.331Z,102478.53
2022-10-11T09:41:26.143Z,102480.53
2022-10-11T09:43:52.531Z,102477.38
2022-10-11T09:46:20.845Z,102479.38
2022-10-11T09:48:47.310Z,102476.09
2022-10-11T09:51:16.690Z,102477.41
2022-10-11T09:53:51.759Z,102478.84
2022-10-11T09:56:18.081Z,102478.47
2022-10-11T09:58:44.401Z,102477.13
2022-10-11T10:01:11.878Z,102468.34
2022-10-11T10:03:38.982Z,102468.84
2022-10-11T10:06:07.434Z,102467.22
2022-10-11T10:08:34.131Z,102467.84
2022-10-11T10:11:03.021Z,102472.91
2022-10-11T10:13:34.738Z,102474.47
2022-10-11T10:16:01.066Z,102470.41
2022-10-11T10:18:29.641Z,102474.03
2022-10-11T10:20:57.192Z,102476.41
2022-10-11T10:23:24.676Z,102470.44
2022-10-11T10:25:51.012Z,102467.53
2022-10-11T10:28:20.345Z,102472.31
2022-10-11T10:30:50.576Z,102468.78
2022-10-11T10:33:17.006Z,102466.56
2022-10-11T10:35:46.084Z,102471.63
2022-10-11T10:38:15.405Z,102468.53
2022-10-11T10:40:43.538Z,102467.69
2022-10-11T10:43:12.628Z,102476.81
2022-10-11T10:45:51.307Z,102466.84
2022-10-11T10:48:22.786Z,102477.53
2022-10-11T10:50:52.411Z,102474.31
2022-10-11T10:53:23.000Z,102477.41
2022-10-11T10:55:52.460Z,102470.34
2022-10-11T10:58:25.025Z,102468.41
2022-10-11T11:00:55.861Z,102464.03
2022-10-11T11:03:24.023Z,102473.41
2022-10-11T11:05:55.704Z,102464.28
2022-10-11T11:08:30.432Z,102462.84
2022-10-11T11:11:01.338Z,102456.78
2022-10-11T11:13:33.100Z,102455.53
2022-10-11T11:16:05.817Z,102454.19
2022-10-11T11:18:37.687Z,102458.50
2022-10-11T11:21:11.048Z,102459.94
2022-10-11T11:23:40.888Z,102452.78
2022-10-11T11:26:12.267Z,102459.50
2022-10-11T11:28:52.244Z,102458.66
2022-10-11T11:31:30.054Z,102450.50
2022-10-11T11:34:00.407Z,102445.44
2022-10-11T11:36:29.146Z,102445.31
2022-10-11T11:38:57.831Z,102436.16
2022-10-11T11:41:26.049Z,102436.88
2022-10-11T11:43:58.350Z,102429.28
2022-10-11T11:46:28.801Z,102426.75
2022-10-11T11:48:58.568Z,102418.75
2022-10-11T11:51:30.412Z,102421.41
2022-10-11T11:54:03.130Z,102416.22
2022-10-11T11:56:33.108Z,102420.19
2022-10-11T11:59:05.300Z,102418.91
2022-10-11T12:01:37.680Z,102412.31
2022-10-11T12:04:05.145Z,102418.06
2022-10-11T12:06:32.448Z,102407.84
2022-10-11T12:09:05.086Z,102413.31
2022-10-11T12:11:45.926Z,102412.47
2022-10-11T12:14:17.249Z,102409.38
2022-10-11T12:16:58.433Z,102407.84
2022-10-11T12:19:32.033Z,102408.13
2022-10-11T12:22:13.221Z,102407.53
2022-10-11T12:24:52.597Z,102406.16
2022-10-11T12:27:33.779Z,102408.00
2022-10-11T12:30:00.101Z,102401.66
2022-10-11T12:32:47.204Z,102396.00
2022-10-11T12:35:37.820Z,102394.34
2022-10-11T12:38:05.467Z,102394.03
2022-10-11T12:40:36.460Z,102392.63
2022-10-11T12:43:10.143Z,102388.28
2022-10-11T12:45:36.557Z,102379.69
2022-10-11T12:48:08.609Z,102383.34
2022-10-11T12:50:43.942Z,102384.75
2022-10-11T12:53:17.158Z,102385.31
2022-10-11T12:55:49.644Z,102388.97
2022-10-11T12:58:26.940Z,102385.00
2022-10-11T13:01:16.993Z,102387.81
2022-10-11T13:03:44.601Z,102379.13
2022-10-11T13:06:15.557Z,102384.19
2022-10-11T13:08:43.377Z,102387.44
2022-10-11T13:11:11.335Z,102381.91
2022-10-11T13:13:39.369Z,102382.22
2022-10-11T13:16:09.178Z,102373.38
2022-10-11T13:18:35.674Z,102371.28
2022-10-11T13:21:02.489Z,102362.09
2022-10-11T13:23:35.425Z,102366.59
2022-10-11T13:26:02.336Z,102361.84
2022-10-11T13:28:32.777Z,102362.56
2022-10-11T13:31:03.173Z,102358.88
2022-10-11T13:33:31.412Z,102358.31
2022-10-11T13:35:57.807Z,102354.19
2022-10-11T13:38:26.556Z,102356.22
2022-10-11T13:40:55.343Z,102358.88
2022-10-11T13:43:23.338Z,102347.31
2022-10-11T13:45:49.731Z,102350.88
2022-10-11T13:48:16.513Z,102353.56
2022-10-11T13:50:42.876Z,102353.84
2022-10-11T13:53:22.298Z,102348.22
2022-10-11T13:55:50.373Z,102360.59
2022-10-11T13:58:21.230Z,102353.25
2022-10-11T14:00:53.060Z,102350.44
2022-10-11T14:03:20.790Z,102353.81
2022-10-11T14:05:53.252Z,102350.56
2022-10-11T14:08:21.828Z,102355.50
2022-10-11T14:10:50.719Z,102348.59
2022-10-11T14:13:30.151Z,102349.72
2022-10-11T14:16:00.681Z,102351.69
2022-10-11T14:18:41.893Z,102350.13
2022-10-11T14:21:23.106Z,102350.00
2022-10-11T14:23:50.727Z,102343.66
2022-10-11T14:26:18.871Z,102341.44
2022-10-11T14:28:49.214Z,102343.16
2022-10-11T14:31:15.757Z,102339.78
2022-10-11T14:33:42.128Z,102343.44
2022-10-11T14:36:08.842Z,102342.75
2022-10-11T14:38:35.337Z,102342.03
2022-10-11T14:41:01.622Z,102337.81
2022-10-11T14:43:27.934Z,102338.25
2022-10-11T14:45:55.587Z,102338.63
2022-10-11T14:48:43.125Z,102342.31
2022-10-11T14:51:12.535Z,102341.44
2022-10-11T14:53:40.964Z,102342.84
2022-10-11T14:56:07.957Z,102337.78
2022-10-11T14:58:34.533Z,102335.25
2022-10-11T15:01:02.174Z,102332.13
2022-10-11T15:03:28.473Z,102323.72
2022-10-11T15:05:54.939Z,102327.09
2022-10-11T15:08:21.235Z,102323.84
2022-10-11T15:10:47.542Z,102323.84
2022-10-11T15:13:13.892Z,102319.06
2022-10-11T15:15:40.320Z,102318.03
2022-10-11T15:18:09.413Z,102312.50
2022-10-11T15:20:37.310Z,102309.94
2022-10-11T15:23:04.649Z,102311.56
2022-10-11T15:25:31.328Z,102309.75
2022-10-11T15:27:58.040Z,102307.22
2022-10-11T15:30:25.524Z,102310.44
2022-10-11T15:32:54.802Z,102305.69
2022-10-11T15:35:22.773Z,102305.16
2022-10-11T15:37:51.435Z,102305.41
2022-10-11T15:40:18.995Z,102299.50
2022-10-11T15:42:45.307Z,102299.38
2022-10-11T15:45:11.713Z,102296.13
2022-10-11T15:47:38.104Z,102303.88
2022-10-11T15:50:11.269Z,102296.84
2022-10-11T15:52:38.941Z,102296.44
2022-10-11T15:55:05.434Z,102307.44
2022-10-11T15:57:31.749Z,102304.06
2022-10-11T15:59:58.055Z,102302.13
2022-10-11T16:02:28.933Z,102301.84
2022-10-11T16:04:55.292Z,102306.19
2022-10-11T16:07:21.590Z,102301.00
2022-10-11T16:09:49.221Z,102297.75
2022-10-11T16:12:15.519Z,102297.75
2022-10-11T16:14:46.969Z,102309.94
2022-10-11T16:17:13.782Z,102299.84
2022-10-11T16:19:40.192Z,102299.00
2022-10-11T16:22:06.716Z,102300.97
2022-10-11T16:24:33.057Z,102296.31
2022-10-11T16:27:00.864Z,102303.28
2022-10-11T16:29:27.248Z,102290.06
2022-10-11T16:31:53.553Z,102301.41
2022-10-11T16:34:19.831Z,102298.56
2022-10-11T16:36:46.130Z,102294.06
2022-10-11T16:39:13.337Z,102290.09
2022-10-11T16:41:41.372Z,102295.13
2022-10-11T16:44:11.491Z,102290.47
2022-10-11T16:46:37.836Z,102290.16
2022-10-11T16:49:05.100Z,102294.47
2022-10-11T16:51:31.437Z,102296.22
2022-10-11T16:53:57.797Z,102297.03
2022-10-11T16:56:24.189Z,102297.81
2022-10-11T16:58:51.267Z,102297.47
2022-10-11T17:01:19.031Z,102302.59
2022-10-11T17:03:45.510Z,102305.22
2022-10-11T17:06:11.807Z,102300.38
2022-10-11T17:08:38.090Z,102302.72
2022-10-11T17:11:05.045Z,102303.19
2022-10-11T17:13:31.697Z,102306.25
2022-10-11T17:15:58.042Z,102308.44
2022-10-11T17:18:25.753Z,102306.16
2022-10-11T17:21:00.032Z,102311.13
2022-10-11T17:23:26.343Z,102312.00
2022-10-11T17:25:52.773Z,102309.25
2022-10-11T17:28:19.117Z,102302.75
2022-10-11T17:30:52.026Z,102306.75
2022-10-11T17:33:18.311Z,102306.41
2022-10-11T17:35:45.947Z,102306.75
2022-10-11T17:38:12.387Z,102309.81
2022-10-11T17:40:38.696Z,102306.91
2022-10-11T17:43:04.988Z,102300.16
2022-10-11T17:45:31.513Z,102307.63
2022-10-11T17:47:57.826Z,102312.59
2022-10-11T17:50:24.135Z,102308.75
2022-10-11T17:52:51.785Z,102313.22
2022-10-11T17:55:18.073Z,102316.72
2022-10-11T17:57:44.356Z,102309.31
2022-10-11T18:00:11.064Z,102309.69
2022-10-11T18:02:37.380Z,102317.97
2022-10-11T18:05:03.888Z,102322.78
2022-10-11T18:07:30.280Z,102312.38
2022-10-11T18:09:57.911Z,102322.50
2022-10-11T18:12:24.223Z,102336.03
2022-10-11T18:14:50.520Z,102336.34
2022-10-11T18:17:16.831Z,102326.81
2022-10-11T18:19:43.122Z,102328.97
2022-10-11T18:22:09.420Z,102330.28
2022-10-11T18:24:35.947Z,102324.81
2022-10-11T18:27:03.784Z,102322.38
2022-10-11T18:29:30.077Z,102326.97
2022-10-11T18:31:56.371Z,102318.28
2022-10-11T18:34:22.663Z,102321.25
2022-10-11T18:36:48.963Z,102319.69
2022-10-11T18:39:15.299Z,102326.09
2022-10-11T18:41:41.762Z,102325.44
2022-10-11T18:44:11.181Z,102322.53
2022-10-11T18:46:37.470Z,102320.09
2022-10-11T18:49:03.799Z,102316.31
2022-10-11T18:51:31.051Z,102319.75
2022-10-11T18:53:57.580Z,102313.91
2022-10-11T18:56:24.129Z,102314.38
2022-10-11T18:58:51.197Z,102313.56
2022-10-11T19:01:19.645Z,102311.56
2022-10-11T19:03:46.835Z,102305.63
2022-10-11T19:06:14.649Z,102308.19
2022-10-11T19:08:40.946Z,102310.09
2022-10-11T19:11:08.339Z,102308.59
2022-10-11T19:13:35.105Z,102305.94
2022-10-11T19:16:05.772Z,102311.38
2022-10-11T19:18:33.611Z,102309.69
2022-10-11T19:21:03.176Z,102307.13
2022-10-11T19:23:33.130Z,102311.47
2022-10-11T19:25:59.407Z,102308.28
2022-10-11T19:28:26.943Z,102311.28
2022-10-11T19:30:53.295Z,102308.00
2022-10-11T19:33:21.636Z,102302.59
2022-10-11T19:35:54.423Z,102296.44
2022-10-11T19:40:47.919Z,102297.94
2022-10-11T19:43:14.229Z,102294.88
2022-10-11T19:45:40.504Z,102294.47
2022-10-11T19:48:06.804Z,102286.94
2022-10-11T19:50:33.108Z,102295.22
2022-10-11T19:53:00.724Z,102290.13
2022-10-11T19:55:27.017Z,102294.47
2022-10-11T19:57:53.324Z,102287.25
2022-10-11T20:00:19.732Z,102293.72
2022-10-11T20:02:46.014Z,102295.91
2022-10-11T20:05:12.291Z,102290.06
2022-10-11T20:07:38.583Z,102298.00
2022-10-11T20:10:06.515Z,102298.22
2022-10-11T20:12:33.400Z,102294.72
2022-10-11T20:14:59.771Z,102301.00
2022-10-11T20:17:27.482Z,102299.41
2022-10-11T20:19:53.781Z,102299.69
2022-10-11T20:22:20.049Z,102297.78
2022-10-11T20:24:46.404Z,102292.69
2022-10-11T20:27:14.012Z,102283.69
2022-10-11T20:29:40.314Z,102285.50
2022-10-11T20:32:06.590Z,102282.94
2022-10-11T20:34:32.902Z,102281.59
2022-10-11T20:36:59.207Z,102279.03
2022-10-11T20:39:25.603Z,102281.88
2022-10-11T20:41:51.899Z,102284.00
2022-10-11T20:44:19.539Z,102288.66
2022-10-11T20:46:45.832Z,102290.53
2022-10-11T20:49:12.382Z,102292.34
2022-10-11T20:51:39.988Z,102285.91
2022-10-11T20:54:06.317Z,102274.66
2022-10-11T20:56:32.673Z,102284.06
2022-10-11T20:58:58.968Z,102284.59
2022-10-11T21:01:27.598Z,102288.03
2022-10-11T21:03:54.173Z,102294.03
2022-10-11T21:06:20.753Z,102292.31
2022-10-11T21:08:47.213Z,102297.03
2022-10-11T21:11:13.528Z,102297.28
2022-10-11T21:13:39.813Z,102298.13
2022-10-11T21:16:06.959Z,102296.31
2022-10-11T21:18:34.618Z,102310.06
2022-10-11T21:21:04.663Z,102298.56
2022-10-11T21:23:30.960Z,102296.31
2022-10-11T21:25:59.586Z,102293.97
2022-10-11T21:28:25.957Z,102294.81
2022-10-11T21:30:52.276Z,102286.31
2022-10-11T21:33:18.560Z,102280.50
2022-10-11T21:35:46.193Z,102292.09
2022-10-11T21:38:12.503Z,102288.63
2022-10-11T21:40:39.003Z,102282.56
2022-10-11T21:43:05.308Z,102286.38
2022-10-11T21:45:31.575Z,102282.22
2022-10-11T21:47:58.058Z,102286.00
2022-10-11T21:50:24.338Z,102284.44
2022-10-11T21:52:51.971Z,102280.00
2022-10-11T21:55:18.278Z,102283.00
2022-10-11T21:57:44.583Z,102280.53
2022-10-11T22:00:11.589Z,102285.09
2022-10-11T22:02:37.948Z,102286.22
2022-10-11T22:05:04.387Z,102289.72
2022-10-11T22:07:30.673Z,102292.28
2022-10-11T22:09:58.315Z,102292.72
2022-10-11T22:12:24.686Z,102286.91
2022-10-11T22:14:50.962Z,102280.94
2022-10-11T22:17:18.968Z,102288.13
2022-10-11T22:19:45.249Z,102283.50
2022-10-11T22:22:11.545Z,102281.97
2022-10-11T22:24:37.849Z,102278.41
2022-10-11T22:27:05.475Z,102280.09
2022-10-11T22:29:34.220Z,102279.25
2022-10-11T22:32:00.823Z,102285.69
2022-10-11T22:34:29.837Z,102285.41
2022-10-11T22:36:56.092Z,102282.09
2022-10-11T22:39:22.390Z,102284.25
2022-10-11T22:41:48.661Z,102271.84
2022-10-11T22:44:16.343Z,102277.28
2022-10-11T22:46:42.646Z,102267.75
2022-10-11T22:49:08.945Z,102279.44
2022-10-11T22:51:35.243Z,102279.34
2022-10-11T22:54:01.522Z,102272.38
2022-10-11T22:56:27.815Z,102269.00
2022-10-11T22:58:54.104Z,102269.44
2022-10-11T23:01:21.746Z,102257.56
2022-10-11T23:03:48.394Z,102258.41
2022-10-11T23:06:14.760Z,102255.41
2022-10-11T23:08:41.048Z,102255.03
2022-10-11T23:11:07.926Z,102249.47
2022-10-11T23:13:34.560Z,102248.63
2022-10-11T23:18:33.216Z,102246.56
2022-10-11T23:20:59.530Z,102252.69
2022-10-11T23:23:25.798Z,102251.84
2022-10-11T23:25:59.619Z,102242.91
2022-10-11T23:28:25.970Z,102252.78
2022-10-11T23:30:52.279Z,102254.66
2022-10-11T23:33:18.570Z,102247.13
2022-10-11T23:35:46.233Z,102246.06
2022-10-11T23:38:12.522Z,102247.69
2022-10-11T23:40:38.790Z,102251.44
2022-10-11T23:43:05.086Z,102247.09
2022-10-11T23:45:31.370Z,102247.28
2022-10-11T23:47:57.655Z,102252.47
2022-10-11T23:50:23.943Z,102251.53
2022-10-11T23:52:51.558Z,102254.94
2022-10-11T23:55:17.868Z,102247.94
2022-10-11T23:57:44.281Z,102251.63
